createdAt,value
2023-01-20T00:04:50.992Z,88.40
2023-01-20T00:07:22.938Z,90.00
2023-01-20T00:09:54.708Z,89.80
2023-01-20T00:12:30.387Z,88.80
2023-01-20T00:15:02.202Z,89.30
2023-01-20T00:17:36.180Z,94.90
2023-01-20T00:20:12.060Z,95.30
2023-01-20T00:22:43.788Z,88.60
2023-01-20T00:25:15.986Z,88.00
2023-01-20T00:27:50.801Z,87.00
2023-01-20T00:30:23.086Z,86.20
2023-01-20T00:32:54.976Z,86.50
2023-01-20T00:35:29.422Z,87.10
2023-01-20T00:38:01.153Z,87.60
2023-01-20T00:40:32.964Z,88.90
2023-01-20T00:43:07.354Z,90.10
2023-01-20T00:45:40.731Z,90.90
2023-01-20T00:48:12.611Z,93.20
2023-01-20T00:50:48.113Z,94.60
2023-01-20T00:53:19.988Z,96.40
2023-01-20T01:32:02.686Z,99.90
2023-01-20T01:37:09.572Z,99.40
2023-01-20T01:39:41.335Z,99.90
2023-01-20T01:42:15.782Z,99.90
2023-01-20T01:45:15.083Z,99.90
2023-01-20T01:47:50.833Z,99.90
2023-01-20T01:50:25.179Z,97.60
2023-01-20T01:52:59.411Z,97.50
2023-01-20T01:58:07.836Z,94.60
2023-01-20T02:00:39.834Z,94.80
2023-01-20T02:03:14.508Z,92.50
2023-01-20T02:05:46.815Z,93.10
2023-01-20T02:08:18.995Z,96.70
2023-01-20T02:10:50.822Z,96.00
2023-01-20T02:13:22.635Z,97.50
2023-01-20T02:15:57.302Z,96.20
2023-01-20T02:18:36.768Z,96.00
2023-01-20T02:21:17.867Z,96.10
2023-01-20T02:24:02.768Z,96.70
2023-01-20T02:26:43.147Z,97.30
2023-01-20T02:29:39.015Z,97.40
2023-01-20T02:32:26.559Z,97.60
2023-01-20T02:35:01.889Z,97.70
2023-01-20T02:37:37.463Z,97.70
2023-01-20T02:40:14.278Z,97.80
2023-01-20T02:42:47.617Z,97.90
2023-01-20T02:45:21.918Z,97.90
2023-01-20T02:47:57.412Z,98.00
2023-01-20T02:50:32.964Z,98.10
2023-01-20T02:53:05.120Z,98.20
2023-01-20T02:55:38.953Z,98.20
2023-01-20T02:58:12.964Z,98.30
2023-01-20T03:00:47.200Z,98.40
2023-01-20T03:03:23.937Z,98.40
2023-01-20T03:05:57.237Z,98.50
2023-01-20T03:08:31.385Z,98.50
2023-01-20T03:11:05.144Z,98.50
2023-01-20T03:13:39.730Z,98.60
2023-01-20T03:16:12.393Z,98.70
2023-01-20T03:18:46.922Z,98.80
2023-01-20T03:21:18.825Z,98.90
2023-01-20T03:23:51.420Z,99.00
2023-01-20T03:26:23.647Z,99.10
2023-01-20T03:28:55.529Z,99.10
2023-01-20T03:31:28.850Z,99.20
2023-01-20T03:34:05.251Z,99.20
2023-01-20T03:36:37.250Z,99.30
2023-01-20T03:39:09.122Z,99.30
2023-01-20T03:41:45.619Z,99.40
2023-01-20T03:44:22.222Z,99.40
2023-01-20T03:46:57.141Z,99.40
2023-01-20T03:49:35.435Z,99.40
2023-01-20T03:52:09.055Z,99.50
2023-01-20T03:54:44.204Z,99.50
2023-01-20T03:57:17.372Z,99.50
2023-01-20T03:59:50.072Z,99.60
2023-01-20T04:02:22.525Z,99.60
2023-01-20T04:04:57.867Z,99.60
2023-01-20T04:07:31.614Z,99.60
2023-01-20T04:10:06.402Z,99.70
2023-01-20T04:12:38.243Z,99.90
2023-01-20T04:15:10.297Z,99.90
2023-01-20T04:17:42.187Z,99.90
2023-01-20T04:20:16.980Z,99.90
2023-01-20T04:22:50.878Z,99.90
2023-01-20T04:25:24.799Z,99.90
2023-01-20T04:27:56.585Z,99.90
2023-01-20T04:30:28.474Z,99.90
2023-01-20T04:33:00.438Z,99.90
2023-01-20T04:35:34.862Z,99.90
2023-01-20T04:38:06.694Z,99.90
2023-01-20T04:40:38.461Z,99.90
2023-01-20T04:43:10.289Z,99.90
2023-01-20T04:45:42.095Z,99.90
2023-01-20T04:48:13.876Z,99.90
2023-01-20T04:50:48.244Z,99.90
2023-01-20T04:53:20.099Z,99.90
2023-01-20T04:55:51.874Z,99.90
2023-01-20T04:58:23.652Z,99.90
2023-01-20T05:00:55.475Z,99.90
2023-01-20T05:03:27.199Z,99.90
2023-01-20T05:06:01.598Z,99.90
2023-01-20T05:08:33.594Z,99.90
2023-01-20T05:11:05.468Z,99.90
2023-01-20T05:13:39.406Z,99.90
2023-01-20T05:16:11.492Z,99.90
2023-01-20T05:18:43.377Z,99.90
2023-01-20T05:21:17.820Z,99.90
2023-01-20T05:23:49.590Z,99.90
2023-01-20T05:26:22.349Z,99.90
2023-01-20T05:28:54.146Z,99.90
2023-01-20T05:31:26.043Z,99.90
2023-01-20T05:33:58.279Z,99.90
2023-01-20T05:36:32.886Z,99.90
2023-01-20T05:39:04.671Z,99.90
2023-01-20T05:41:36.617Z,99.90
2023-01-20T05:44:09.053Z,99.90
2023-01-20T05:46:43.633Z,99.90
2023-01-20T05:49:15.403Z,99.90
2023-01-20T05:54:24.310Z,99.90
2023-01-20T05:59:28.208Z,99.90
2023-01-20T06:09:46.379Z,97.00
2023-01-20T06:12:18.115Z,97.20
2023-01-20T06:14:50.305Z,95.60
2023-01-20T06:17:22.109Z,94.80
2023-01-20T06:19:53.916Z,95.40
2023-01-20T06:22:26.195Z,94.30
2023-01-20T06:25:00.538Z,93.90
2023-01-20T06:27:32.328Z,94.20
2023-01-20T06:30:04.360Z,94.40
2023-01-20T06:32:36.113Z,94.60
2023-01-20T06:35:10.571Z,94.90
2023-01-20T06:37:43.010Z,97.70
2023-01-20T06:40:17.727Z,97.10
2023-01-20T06:42:49.495Z,96.20
2023-01-20T06:45:21.293Z,96.00
2023-01-20T06:47:53.038Z,96.00
2023-01-20T06:50:24.830Z,95.90
2023-01-20T06:52:56.871Z,95.60
2023-01-20T06:55:31.287Z,95.30
2023-01-20T06:58:03.136Z,94.90
2023-01-20T07:00:34.986Z,94.70
2023-01-20T07:03:06.898Z,94.70
2023-01-20T07:05:38.703Z,94.80
2023-01-20T07:08:11.587Z,94.60
2023-01-20T07:13:18.083Z,93.10
2023-01-20T07:15:49.930Z,93.10
2023-01-20T07:18:23.835Z,92.80
2023-01-20T07:20:56.073Z,92.90
2023-01-20T07:23:28.021Z,92.90
2023-01-20T07:26:00.130Z,92.80
2023-01-20T07:28:34.920Z,92.80
2023-01-20T07:31:07.820Z,92.80
2023-01-20T07:33:39.784Z,92.70
2023-01-20T07:36:12.955Z,92.60
2023-01-20T07:38:46.527Z,92.50
2023-01-20T07:41:19.973Z,92.50
2023-01-20T07:43:54.514Z,92.50
2023-01-20T07:46:26.385Z,92.50
2023-01-20T07:48:58.143Z,92.50
2023-01-20T07:51:29.961Z,92.50
2023-01-20T07:54:03.037Z,92.60
2023-01-20T07:56:34.790Z,92.50
2023-01-20T07:59:10.039Z,92.50
2023-01-20T08:01:42.745Z,92.50
2023-01-20T08:04:14.594Z,92.80
2023-01-20T08:06:46.412Z,94.70
2023-01-20T08:11:50.276Z,92.20
2023-01-20T08:14:24.704Z,92.40
2023-01-20T08:16:56.543Z,92.30
2023-01-20T08:19:28.894Z,92.30
2023-01-20T08:22:00.676Z,92.30
2023-01-20T08:24:32.651Z,92.30
2023-01-20T08:27:04.437Z,92.30
2023-01-20T08:29:38.787Z,92.30
2023-01-20T08:32:10.568Z,92.20
2023-01-20T08:34:42.325Z,92.20
2023-01-20T08:39:46.218Z,92.00
2023-01-20T08:42:18.159Z,92.20
2023-01-20T08:44:54.489Z,92.20
2023-01-20T08:47:26.291Z,92.20
2023-01-20T08:49:58.120Z,92.20
2023-01-20T08:52:29.952Z,92.20
2023-01-20T08:55:01.917Z,92.30
2023-01-20T08:57:33.692Z,92.30
2023-01-20T09:00:11.229Z,92.40
2023-01-20T09:02:43.361Z,92.60
2023-01-20T09:05:15.520Z,92.70
2023-01-20T09:07:47.403Z,92.80
2023-01-20T09:10:19.882Z,92.90
2023-01-20T09:12:51.666Z,93.10
2023-01-20T09:15:28.790Z,93.20
2023-01-20T09:18:00.613Z,93.30
2023-01-20T09:20:32.420Z,93.40
2023-01-20T09:23:04.219Z,93.50
2023-01-20T09:25:36.340Z,93.50
2023-01-20T09:28:08.100Z,93.50
2023-01-20T09:30:43.511Z,93.60
2023-01-20T09:33:15.389Z,93.70
2023-01-20T09:35:53.609Z,93.70
2023-01-20T09:38:44.702Z,93.80
2023-01-20T09:41:36.816Z,93.90
2023-01-20T09:44:16.010Z,93.90
2023-01-20T09:47:14.840Z,94.00
2023-01-20T09:50:11.783Z,94.20
2023-01-20T09:53:05.149Z,94.30
2023-01-20T09:55:42.016Z,94.50
2023-01-20T09:58:20.841Z,94.60
2023-01-20T10:00:55.681Z,94.70
2023-01-20T10:03:37.196Z,94.90
2023-01-20T10:06:11.568Z,95.00
2023-01-20T10:09:03.749Z,95.10
2023-01-20T10:11:39.176Z,95.20
2023-01-20T10:14:15.223Z,95.30
2023-01-20T10:16:50.443Z,95.50
2023-01-20T10:19:29.463Z,95.60
2023-01-20T10:22:07.233Z,95.70
2023-01-20T10:24:42.318Z,95.90
2023-01-20T10:27:14.191Z,96.00
2023-01-20T10:29:48.015Z,96.10
2023-01-20T10:32:23.717Z,96.30
2023-01-20T10:34:59.590Z,96.30
2023-01-20T10:37:32.173Z,96.50
2023-01-20T10:40:08.683Z,96.70
2023-01-20T10:42:40.486Z,96.80
2023-01-20T10:45:15.585Z,97.20
2023-01-20T10:47:53.136Z,97.30
2023-01-20T10:50:47.088Z,97.50
2023-01-20T10:53:27.908Z,97.70
2023-01-20T10:56:03.860Z,98.00
2023-01-20T10:58:37.480Z,98.00
2023-01-20T11:06:30.721Z,98.20
2023-01-20T11:09:20.732Z,98.40
2023-01-20T11:14:26.270Z,98.50
2023-01-20T11:17:00.880Z,98.60
2023-01-20T11:21:43.386Z,98.40
2023-01-20T11:25:05.885Z,98.50
2023-01-20T11:30:29.402Z,98.50
2023-01-20T11:33:08.145Z,98.90
2023-01-20T11:37:25.718Z,98.90
2023-01-20T11:40:02.394Z,99.00
2023-01-20T11:42:42.238Z,99.00
2023-01-20T11:45:34.604Z,98.90
2023-01-20T11:48:16.629Z,99.20
2023-01-20T11:50:50.398Z,99.30
2023-01-20T11:54:30.968Z,99.00
2023-01-20T11:57:04.989Z,99.30
2023-01-20T11:59:37.375Z,99.40
2023-01-20T12:04:26.508Z,99.80
2023-01-20T12:07:00.309Z,99.90
2023-01-20T12:09:35.097Z,99.90
2023-01-20T12:14:53.853Z,99.90
2023-01-20T12:17:40.069Z,99.90
2023-01-20T12:20:16.962Z,99.90
2023-01-20T12:22:55.333Z,99.90
2023-01-20T12:26:06.595Z,99.90
2023-01-20T12:28:43.695Z,99.90
2023-01-20T12:31:20.019Z,99.90
2023-01-20T12:33:53.614Z,99.90
2023-01-20T12:37:51.983Z,99.90
2023-01-20T12:40:29.843Z,99.90
2023-01-20T12:43:11.472Z,99.90
2023-01-20T12:45:51.637Z,99.90
2023-01-20T12:50:26.205Z,99.80
2023-01-20T12:53:10.846Z,97.90
2023-01-20T12:55:55.928Z,97.10
2023-01-20T12:58:40.046Z,95.90
2023-01-20T13:03:20.247Z,93.10
2023-01-20T13:06:16.986Z,91.50
2023-01-20T13:08:57.244Z,89.80
2023-01-20T13:11:43.583Z,87.40
2023-01-20T13:16:35.623Z,87.40
2023-01-20T13:19:11.984Z,86.40
2023-01-20T13:22:02.872Z,86.20
2023-01-20T13:24:39.737Z,83.90
2023-01-20T13:27:12.156Z,82.80
2023-01-20T13:31:32.997Z,81.20
2023-01-20T13:34:22.497Z,81.00
2023-01-20T13:37:10.268Z,80.90
2023-01-20T13:39:45.115Z,79.40
2023-01-20T13:42:37.667Z,79.10
2023-01-20T13:46:17.424Z,78.00
2023-01-20T13:49:04.097Z,78.50
2023-01-20T13:51:45.993Z,78.40
2023-01-20T13:54:35.493Z,77.30
2023-01-20T13:57:36.338Z,76.70
2023-01-20T14:01:15.020Z,76.70
2023-01-20T14:04:00.987Z,77.40
2023-01-20T14:06:35.715Z,77.50
2023-01-20T14:09:11.428Z,77.80
2023-01-20T14:11:49.039Z,77.80
2023-01-20T14:14:22.076Z,78.00
2023-01-20T14:17:18.849Z,77.60
2023-01-20T14:19:52.036Z,78.30
2023-01-20T14:22:24.959Z,78.40
2023-01-20T14:25:12.951Z,78.80
2023-01-20T14:27:47.669Z,79.00
2023-01-20T14:30:26.033Z,79.20
2023-01-20T14:34:36.725Z,79.20
2023-01-20T14:37:20.080Z,79.90
2023-01-20T14:39:52.087Z,80.10
2023-01-20T14:42:24.934Z,80.50
2023-01-20T14:44:57.363Z,80.70
2023-01-20T14:47:30.248Z,80.80
2023-01-20T14:50:12.156Z,81.00
2023-01-20T14:53:40.891Z,80.80
2023-01-20T14:56:18.047Z,81.40
2023-01-20T14:58:51.448Z,81.90
2023-01-20T15:01:45.292Z,81.50
2023-01-20T15:04:19.897Z,81.70
2023-01-20T15:06:56.494Z,81.80
2023-01-20T15:09:34.108Z,81.90
2023-01-20T15:12:20.970Z,82.00
2023-01-20T15:15:03.678Z,82.00
2023-01-20T15:17:35.554Z,82.20
2023-01-20T15:20:22.248Z,82.20
2023-01-20T15:22:54.136Z,82.30
2023-01-20T15:25:29.229Z,82.40
2023-01-20T15:30:04.369Z,82.10
2023-01-20T15:32:36.129Z,82.50
2023-01-20T15:35:11.465Z,82.60
2023-01-20T15:37:43.941Z,83.20
2023-01-20T15:40:17.246Z,82.80
2023-01-20T15:42:49.659Z,82.80
2023-01-20T15:45:25.540Z,82.80
2023-01-20T15:47:57.921Z,82.90
2023-01-20T15:50:31.239Z,83.00
2023-01-20T15:53:03.609Z,83.00
2023-01-20T15:55:37.145Z,83.10
2023-01-20T15:58:17.870Z,83.10
2023-01-20T16:00:55.648Z,83.10
2023-01-20T16:03:27.619Z,83.20
2023-01-20T16:05:59.499Z,83.20
2023-01-20T16:08:34.976Z,83.10
2023-01-20T16:11:07.868Z,83.10
2023-01-20T16:13:39.632Z,83.00
2023-01-20T16:16:16.022Z,83.00
2023-01-20T16:18:48.299Z,83.00
2023-01-20T16:21:20.333Z,83.10
2023-01-20T16:23:52.093Z,83.10
2023-01-20T16:26:26.135Z,83.10
2023-01-20T16:28:58.314Z,83.10
2023-01-20T16:31:33.728Z,82.90
2023-01-20T16:34:05.596Z,82.80
2023-01-20T16:36:37.445Z,82.70
2023-01-20T16:39:10.316Z,82.60
2023-01-20T16:41:46.642Z,82.50
2023-01-20T16:44:18.466Z,82.40
2023-01-20T16:46:52.888Z,82.20
2023-01-20T16:49:24.702Z,82.30
2023-01-20T16:51:56.467Z,82.30
2023-01-20T16:54:31.900Z,84.00
2023-01-20T16:57:03.754Z,85.80
2023-01-20T16:59:35.559Z,86.90
2023-01-20T17:02:12.101Z,87.50
2023-01-20T17:04:44.020Z,87.80
2023-01-20T17:07:15.818Z,87.70
2023-01-20T17:09:47.766Z,87.30
2023-01-20T17:12:19.566Z,86.90
2023-01-20T17:14:51.517Z,86.30
2023-01-20T17:17:25.973Z,85.80
2023-01-20T17:19:57.718Z,85.30
2023-01-20T17:22:29.522Z,84.60
2023-01-20T17:25:01.330Z,84.10
2023-01-20T17:27:33.441Z,83.50
2023-01-20T17:30:07.706Z,83.00
2023-01-20T17:32:45.314Z,82.40
2023-01-20T17:35:17.316Z,82.00
2023-01-20T17:37:49.392Z,81.50
2023-01-20T17:40:21.196Z,81.00
2023-01-20T17:42:53.671Z,80.60
2023-01-20T17:45:25.768Z,80.20
2023-01-20T17:48:01.034Z,79.80
2023-01-20T17:50:33.998Z,79.40
2023-01-20T17:53:06.017Z,79.10
2023-01-20T17:55:38.283Z,78.80
2023-01-20T17:58:10.089Z,78.60
2023-01-20T18:00:41.897Z,78.20
2023-01-20T18:03:16.344Z,77.90
2023-01-20T18:06:00.880Z,77.60
2023-01-20T18:08:33.025Z,77.50
2023-01-20T18:11:05.508Z,77.50
2023-01-20T18:13:37.326Z,77.50
2023-01-20T18:16:11.661Z,77.40
2023-01-20T18:18:46.756Z,77.30
2023-01-20T18:21:19.182Z,77.10
2023-01-20T18:23:51.459Z,76.90
2023-01-20T18:26:25.164Z,76.70
2023-01-20T18:28:58.556Z,76.60
2023-01-20T18:31:32.388Z,76.40
2023-01-20T18:34:10.387Z,76.20
2023-01-20T18:36:48.895Z,76.00
2023-01-20T18:39:22.908Z,75.90
2023-01-20T18:41:54.938Z,75.80
2023-01-20T18:44:26.989Z,75.70
2023-01-20T18:46:59.035Z,75.70
2023-01-20T18:49:33.652Z,75.60
2023-01-20T18:52:05.766Z,75.40
2023-01-20T18:54:39.156Z,75.20
2023-01-20T18:57:11.125Z,75.20
2023-01-20T18:59:43.177Z,75.20
2023-01-20T19:02:15.264Z,74.80
2023-01-20T19:04:49.928Z,74.60
2023-01-20T19:07:21.910Z,74.50
2023-01-20T19:09:54.056Z,74.40
2023-01-20T19:12:26.209Z,74.40
2023-01-20T19:14:58.677Z,74.30
2023-01-20T19:17:33.058Z,74.30
2023-01-20T19:20:09.761Z,74.20
2023-01-20T19:22:41.827Z,74.00
2023-01-20T19:25:14.014Z,73.80
2023-01-20T19:27:45.960Z,73.70
2023-01-20T19:30:18.370Z,73.60
2023-01-20T19:32:50.462Z,73.60
2023-01-20T19:35:25.191Z,73.80
2023-01-20T19:37:57.223Z,73.90
2023-01-20T19:40:29.199Z,73.90
2023-01-20T19:43:01.728Z,74.00
2023-01-20T19:45:45.306Z,74.00
2023-01-20T19:48:17.726Z,73.90
2023-01-20T19:50:52.117Z,74.00
2023-01-20T19:53:24.033Z,73.30
2023-01-20T19:55:59.993Z,72.60
2023-01-20T19:58:36.182Z,72.30
2023-01-20T20:01:08.347Z,72.30
2023-01-20T20:03:40.253Z,72.40
2023-01-20T20:06:23.920Z,72.70
2023-01-20T20:08:57.052Z,72.90
2023-01-20T20:11:29.566Z,73.30
2023-01-20T20:14:02.195Z,73.60
2023-01-20T20:16:35.032Z,74.00
2023-01-20T20:19:07.339Z,74.50
2023-01-20T20:21:41.790Z,74.80
2023-01-20T20:24:14.837Z,75.20
2023-01-20T20:26:46.828Z,75.60
2023-01-20T20:29:19.207Z,76.00
2023-01-20T20:31:51.559Z,76.40
2023-01-20T20:34:23.579Z,76.70
2023-01-20T20:36:58.056Z,77.00
2023-01-20T20:39:29.846Z,77.40
2023-01-20T20:42:01.848Z,77.70
2023-01-20T20:44:33.704Z,78.00
2023-01-20T20:47:05.669Z,78.20
2023-01-20T20:49:37.441Z,78.60
2023-01-20T20:52:12.022Z,78.80
2023-01-20T20:54:46.210Z,79.10
2023-01-20T20:57:18.454Z,79.40
2023-01-20T21:00:01.363Z,79.50
2023-01-20T21:02:33.688Z,79.80
2023-01-20T21:05:11.119Z,80.00
2023-01-20T21:07:47.647Z,80.20
2023-01-20T21:10:21.371Z,80.60
2023-01-20T21:12:53.203Z,82.50
2023-01-20T21:15:25.067Z,84.00
2023-01-20T21:17:59.532Z,84.80
2023-01-20T21:20:33.307Z,85.00
2023-01-20T21:23:08.391Z,85.00
2023-01-20T21:25:40.231Z,84.70
2023-01-20T21:28:13.825Z,84.30
2023-01-20T21:30:46.017Z,83.80
2023-01-20T21:33:18.070Z,83.20
2023-01-20T21:35:49.868Z,82.70
2023-01-20T21:38:24.298Z,82.20
2023-01-20T21:41:02.085Z,81.70
2023-01-20T21:43:53.163Z,81.30
2023-01-20T21:46:25.281Z,80.80
2023-01-20T21:49:20.260Z,80.40
2023-01-20T21:52:10.899Z,79.90
2023-01-20T21:54:45.776Z,79.50
2023-01-20T21:57:17.648Z,79.20
2023-01-20T21:59:49.442Z,78.80
2023-01-20T22:02:21.367Z,78.50
2023-01-20T22:04:53.289Z,78.30
2023-01-20T22:07:25.197Z,78.20
2023-01-20T22:10:00.098Z,77.50
2023-01-20T22:12:35.617Z,77.20
2023-01-20T22:15:08.013Z,77.00
2023-01-20T22:17:41.436Z,76.90
2023-01-20T22:20:14.366Z,76.70
2023-01-20T22:22:46.485Z,76.60
2023-01-20T22:25:20.977Z,76.70
2023-01-20T22:27:52.754Z,76.50
2023-01-20T22:30:24.582Z,76.40
2023-01-20T22:32:56.413Z,76.40
2023-01-20T22:35:28.209Z,76.20
2023-01-20T22:37:59.982Z,76.10
2023-01-20T22:40:34.449Z,76.00
2023-01-20T22:43:06.287Z,75.40
2023-01-20T22:45:38.148Z,74.60
2023-01-20T22:48:09.977Z,74.80
2023-01-20T22:50:41.772Z,74.20
2023-01-20T22:53:14.031Z,74.30
2023-01-20T22:56:00.350Z,74.50
2023-01-20T22:58:33.225Z,74.70
2023-01-20T23:01:05.526Z,75.00
2023-01-20T23:03:37.603Z,75.40
2023-01-20T23:06:10.117Z,75.70
2023-01-20T23:08:42.013Z,76.10
2023-01-20T23:11:17.463Z,76.40
2023-01-20T23:13:49.526Z,76.70
2023-01-20T23:16:22.473Z,77.00
2023-01-20T23:18:54.529Z,77.30
2023-01-20T23:21:26.456Z,77.60
2023-01-20T23:23:58.595Z,77.90
2023-01-20T23:26:34.395Z,78.20
2023-01-20T23:29:06.279Z,78.50
2023-01-20T23:31:38.155Z,78.80
2023-01-20T23:34:09.996Z,79.10
2023-01-20T23:36:41.836Z,79.30
2023-01-20T23:39:13.687Z,79.70
2023-01-20T23:41:48.135Z,79.80
2023-01-20T23:44:19.899Z,80.00
2023-01-20T23:46:51.933Z,80.30
2023-01-20T23:49:23.759Z,80.50
2023-01-20T23:51:55.563Z,80.70
2023-01-20T23:54:27.378Z,80.90
2023-01-20T23:57:01.777Z,81.10
2023-01-20T23:59:33.554Z,81.20
